createdAt,value
2023-02-11T00:02:04.833Z,90.16
2023-02-11T00:04:37.476Z,90.76
2023-02-11T00:07:11.606Z,90.13
2023-02-11T00:09:44.453Z,90.26
2023-02-11T00:12:19.467Z,90.93
2023-02-11T00:14:54.794Z,90.63
2023-02-11T00:17:27.661Z,89.88
2023-02-11T00:20:00.516Z,89.93
2023-02-11T00:22:34.718Z,90.70
2023-02-11T00:25:07.877Z,90.02
2023-02-11T00:27:40.999Z,90.16
2023-02-11T00:30:14.294Z,89.83
2023-02-11T00:32:47.086Z,89.80
2023-02-11T00:35:19.845Z,90.07
2023-02-11T00:37:55.981Z,90.32
2023-02-11T00:40:29.160Z,89.88
2023-02-11T00:43:02.160Z,89.41
2023-02-11T00:45:34.961Z,89.63
2023-02-11T00:48:08.071Z,89.29
2023-02-11T00:50:40.894Z,89.29
2023-02-11T00:53:15.110Z,89.55
2023-02-11T00:55:48.217Z,89.03
2023-02-11T00:58:22.451Z,89.22
2023-02-11T01:00:55.340Z,89.01
2023-02-11T01:03:28.125Z,89.67
2023-02-11T01:06:01.400Z,88.91
2023-02-11T01:08:35.544Z,89.73
2023-02-11T01:11:13.504Z,89.25
2023-02-11T01:13:48.037Z,89.64
2023-02-11T01:16:22.451Z,89.17
2023-02-11T01:18:55.846Z,88.74
2023-02-11T01:21:28.806Z,88.79
2023-02-11T01:24:02.951Z,89.30
2023-02-11T01:26:35.795Z,89.43
2023-02-11T01:29:09.281Z,89.34
2023-02-11T01:31:42.147Z,89.23
2023-02-11T01:34:15.478Z,89.29
2023-02-11T01:36:48.272Z,89.20
2023-02-11T01:39:22.351Z,88.78
2023-02-11T01:41:56.058Z,88.77
2023-02-11T01:44:32.934Z,89.00
2023-02-11T01:47:06.511Z,89.58
2023-02-11T01:49:43.271Z,88.74
2023-02-11T01:52:22.110Z,88.71
2023-02-11T01:55:17.828Z,88.77
2023-02-11T01:57:56.275Z,89.08
2023-02-11T02:00:35.546Z,89.25
2023-02-11T02:06:24.014Z,89.47
2023-02-11T02:09:02.187Z,89.36
2023-02-11T02:11:37.406Z,89.63
2023-02-11T02:14:10.183Z,89.29
2023-02-11T02:16:43.191Z,88.95
2023-02-11T02:19:48.652Z,89.59
2023-02-11T02:22:59.141Z,89.80
2023-02-11T02:25:59.739Z,89.78
2023-02-11T02:28:57.974Z,90.26
2023-02-11T02:31:51.350Z,89.71
2023-02-11T02:34:31.871Z,90.15
2023-02-11T02:37:11.306Z,90.17
2023-02-11T02:39:47.481Z,89.53
2023-02-11T02:42:21.315Z,90.06
2023-02-11T02:44:54.413Z,89.57
2023-02-11T02:47:27.466Z,89.93
2023-02-11T02:50:01.880Z,89.88
2023-02-11T02:52:40.243Z,89.75
2023-02-11T02:55:34.474Z,90.05
2023-02-11T02:58:31.205Z,89.60
2023-02-11T03:01:15.084Z,90.09
2023-02-11T03:03:53.092Z,89.71
2023-02-11T03:06:34.635Z,90.14
2023-02-11T03:09:11.863Z,90.01
2023-02-11T03:11:44.674Z,90.36
2023-02-11T03:14:20.284Z,90.48
2023-02-11T03:16:57.007Z,90.40
2023-02-11T03:19:35.402Z,90.17
2023-02-11T03:22:15.501Z,89.79
2023-02-11T03:24:49.353Z,90.11
2023-02-11T03:27:28.354Z,90.17
2023-02-11T03:30:11.996Z,89.89
2023-02-11T03:32:52.295Z,90.14
2023-02-11T03:35:32.857Z,90.43
2023-02-11T03:38:10.213Z,90.92
2023-02-11T03:40:45.544Z,90.53
2023-02-11T03:43:22.829Z,90.93
2023-02-11T03:45:57.397Z,90.78
2023-02-11T03:48:34.184Z,91.35
2023-02-11T03:51:10.091Z,91.44
2023-02-11T03:53:47.723Z,91.00
2023-02-11T03:56:24.541Z,90.75
2023-02-11T03:58:57.806Z,91.32
2023-02-11T04:01:30.726Z,91.14
2023-02-11T04:04:04.956Z,91.02
2023-02-11T04:06:38.506Z,91.29
2023-02-11T04:09:13.478Z,91.26
2023-02-11T04:11:46.003Z,90.84
2023-02-11T04:14:18.781Z,91.47
2023-02-11T04:16:51.581Z,91.17
2023-02-11T04:19:24.354Z,91.48
2023-02-11T04:21:57.129Z,90.96
2023-02-11T04:24:31.425Z,91.21
2023-02-11T04:27:04.401Z,91.22
2023-02-11T04:29:37.714Z,91.52
2023-02-11T04:32:11.684Z,91.92
2023-02-11T04:34:44.725Z,91.18
2023-02-11T04:37:17.539Z,91.91
2023-02-11T04:39:51.691Z,91.58
2023-02-11T04:42:25.067Z,91.60
2023-02-11T04:44:58.026Z,92.31
2023-02-11T04:47:30.889Z,91.93
2023-02-11T04:50:03.763Z,92.00
2023-02-11T04:52:36.473Z,92.37
2023-02-11T04:55:10.741Z,92.13
2023-02-11T04:57:43.602Z,92.41
2023-02-11T05:00:17.416Z,92.75
2023-02-11T05:02:50.260Z,92.95
2023-02-11T05:05:23.039Z,92.79
2023-02-11T05:07:55.835Z,92.82
2023-02-11T05:10:29.933Z,93.29
2023-02-11T05:13:02.991Z,93.39
2023-02-11T05:15:36.050Z,93.11
2023-02-11T05:18:08.844Z,93.69
2023-02-11T05:20:42.039Z,93.76
2023-02-11T05:23:14.849Z,94.24
2023-02-11T05:25:49.242Z,93.94
2023-02-11T05:28:22.156Z,94.31
2023-02-11T05:30:55.236Z,94.41
2023-02-11T05:33:28.570Z,94.44
2023-02-11T05:36:02.183Z,94.88
2023-02-11T05:38:35.481Z,94.91
2023-02-11T05:41:09.889Z,94.64
2023-02-11T05:43:42.641Z,94.72
2023-02-11T05:46:15.451Z,95.41
2023-02-11T05:48:48.338Z,95.78
2023-02-11T05:51:21.130Z,95.86
2023-02-11T05:53:54.196Z,95.74
2023-02-11T05:56:28.396Z,95.55
2023-02-11T05:59:01.653Z,95.47
2023-02-11T06:01:34.483Z,96.30
2023-02-11T06:04:07.382Z,95.86
2023-02-11T06:06:40.198Z,96.40
2023-02-11T06:09:12.943Z,96.25
2023-02-11T06:11:47.368Z,96.32
2023-02-11T06:14:20.401Z,96.49
2023-02-11T06:16:53.219Z,96.33
2023-02-11T06:19:26.081Z,97.17
2023-02-11T06:21:58.884Z,96.86
2023-02-11T06:24:51.405Z,96.72
2023-02-11T06:27:26.671Z,96.86
2023-02-11T06:29:59.696Z,97.32
2023-02-11T06:32:44.455Z,96.64
2023-02-11T06:35:18.151Z,96.97
2023-02-11T06:37:53.713Z,96.67
2023-02-11T06:40:26.469Z,97.02
2023-02-11T06:43:00.646Z,97.79
2023-02-11T06:45:33.637Z,97.65
2023-02-11T06:48:06.910Z,97.18
2023-02-11T06:50:40.086Z,98.03
2023-02-11T06:53:12.965Z,98.29
2023-02-11T06:55:45.804Z,97.87
2023-02-11T06:58:19.992Z,97.64
2023-02-11T07:00:53.651Z,98.41
2023-02-11T07:03:26.796Z,98.25
2023-02-11T07:05:59.596Z,98.43
2023-02-11T07:08:32.449Z,98.62
2023-02-11T07:11:10.529Z,98.89
2023-02-11T07:13:45.245Z,98.20
2023-02-11T07:16:19.036Z,98.23
2023-02-11T07:18:52.148Z,98.56
2023-02-11T07:21:25.341Z,98.52
2023-02-11T07:23:58.234Z,98.69
2023-02-11T07:26:31.016Z,98.28
2023-02-11T07:29:05.578Z,98.00
2023-02-11T07:31:38.424Z,98.19
2023-02-11T07:34:12.064Z,98.73
2023-02-11T07:36:45.047Z,98.82
2023-02-11T07:39:17.907Z,98.29
2023-02-11T07:41:50.705Z,98.89
2023-02-11T07:44:25.208Z,98.67
2023-02-11T07:46:58.197Z,98.09
2023-02-11T07:49:31.001Z,98.78
2023-02-11T07:52:03.809Z,98.70
2023-02-11T07:54:36.624Z,98.28
2023-02-11T07:57:09.510Z,98.31
2023-02-11T07:59:43.993Z,97.98
2023-02-11T08:02:16.965Z,98.42
2023-02-11T08:04:50.655Z,98.54
2023-02-11T08:07:23.491Z,98.22
2023-02-11T08:09:56.724Z,98.34
2023-02-11T08:12:29.512Z,97.77
2023-02-11T08:15:03.940Z,98.17
2023-02-11T08:17:36.778Z,97.46
2023-02-11T08:20:10.348Z,97.27
2023-02-11T08:22:43.211Z,97.93
2023-02-11T08:25:16.180Z,97.89
2023-02-11T08:27:48.931Z,98.17
2023-02-11T08:30:25.052Z,97.34
2023-02-11T08:32:59.004Z,97.47
2023-02-11T08:35:32.973Z,97.36
2023-02-11T08:38:05.714Z,97.26
2023-02-11T08:40:39.894Z,97.11
2023-02-11T08:43:12.633Z,96.99
2023-02-11T08:45:47.081Z,96.27
2023-02-11T08:48:19.890Z,95.77
2023-02-11T08:50:52.694Z,95.95
2023-02-11T08:53:26.197Z,95.98
2023-02-11T08:55:59.284Z,95.73
2023-02-11T08:58:32.054Z,94.99
2023-02-11T09:01:11.452Z,95.45
2023-02-11T09:03:44.372Z,94.72
2023-02-11T09:06:18.575Z,94.93
2023-02-11T09:08:53.903Z,94.27
2023-02-11T09:11:29.446Z,94.19
2023-02-11T09:14:03.235Z,94.61
2023-02-11T09:16:37.618Z,93.90
2023-02-11T09:19:10.733Z,94.29
2023-02-11T09:21:43.708Z,94.67
2023-02-11T09:24:16.676Z,93.95
2023-02-11T09:26:50.042Z,94.98
2023-02-11T09:29:22.852Z,95.18
2023-02-11T09:31:59.122Z,94.91
2023-02-11T09:34:32.045Z,94.67
2023-02-11T09:37:05.117Z,95.02
2023-02-11T09:39:37.935Z,95.14
2023-02-11T09:42:40.695Z,94.33
2023-02-11T09:45:18.496Z,94.85
2023-02-11T09:47:56.895Z,94.42
2023-02-11T09:50:33.510Z,94.03
2023-02-11T09:53:12.364Z,93.94
2023-02-11T09:55:48.895Z,94.37
2023-02-11T09:58:26.740Z,94.31
2023-02-11T10:01:07.838Z,94.39
2023-02-11T10:03:55.659Z,94.17
2023-02-11T10:06:40.150Z,93.86
2023-02-11T10:09:29.738Z,94.26
2023-02-11T10:12:17.097Z,93.93
2023-02-11T10:15:02.404Z,94.16
2023-02-11T10:17:39.486Z,94.18
2023-02-11T10:20:26.353Z,93.93
2023-02-11T10:23:02.237Z,94.52
2023-02-11T10:25:38.113Z,94.27
2023-02-11T10:28:15.297Z,93.78
2023-02-11T10:30:56.759Z,93.74
2023-02-11T10:33:35.531Z,94.02
2023-02-11T10:36:12.100Z,93.66
2023-02-11T10:38:45.425Z,93.17
2023-02-11T10:41:23.622Z,93.03
2023-02-11T10:43:56.768Z,93.04
2023-02-11T10:46:34.277Z,92.89
2023-02-11T10:49:07.293Z,92.98
2023-02-11T10:51:41.785Z,93.25
2023-02-11T10:54:21.217Z,93.05
2023-02-11T10:57:00.563Z,93.05
2023-02-11T10:59:38.320Z,93.36
2023-02-11T11:02:23.423Z,92.63
2023-02-11T11:04:58.197Z,92.42
2023-02-11T11:07:52.454Z,91.99
2023-02-11T11:10:32.856Z,92.75
2023-02-11T11:13:30.832Z,92.16
2023-02-11T11:16:23.155Z,92.23
2023-02-11T11:19:17.117Z,92.15
2023-02-11T11:21:52.751Z,92.73
2023-02-11T11:24:34.271Z,92.28
2023-02-11T11:27:07.700Z,91.27
2023-02-11T11:29:45.861Z,90.75
2023-02-11T11:32:23.355Z,90.16
2023-02-11T11:34:58.299Z,90.69
2023-02-11T11:37:31.763Z,91.02
2023-02-11T11:40:22.688Z,90.36
2023-02-11T11:43:08.544Z,90.07
2023-02-11T11:45:53.021Z,90.41
2023-02-11T11:48:31.237Z,90.48
2023-02-11T11:54:14.714Z,90.32
2023-02-11T11:57:19.126Z,90.08
2023-02-11T11:59:51.930Z,90.85
2023-02-11T12:02:48.720Z,89.57
2023-02-11T12:05:27.718Z,89.42
2023-02-11T12:08:10.663Z,89.10
2023-02-11T12:11:03.824Z,89.52
2023-02-11T12:13:49.904Z,88.51
2023-02-11T12:16:34.528Z,89.12
2023-02-11T12:22:31.567Z,87.89
2023-02-11T12:25:22.743Z,88.55
2023-02-11T12:28:06.827Z,87.40
2023-02-11T12:31:01.310Z,87.59
2023-02-11T12:33:51.044Z,87.13
2023-02-11T12:36:37.998Z,87.11
2023-02-11T12:39:27.322Z,84.49
2023-02-11T12:45:51.941Z,84.94
2023-02-11T12:48:36.194Z,84.67
2023-02-11T12:51:21.717Z,84.01
2023-02-11T12:54:18.422Z,83.41
2023-02-11T12:56:55.447Z,83.47
2023-02-11T12:59:39.340Z,83.81
2023-02-11T13:02:21.572Z,84.28
2023-02-11T13:04:58.189Z,84.14
2023-02-11T13:14:25.411Z,83.88
2023-02-11T13:17:32.358Z,84.09
2023-02-11T13:20:19.504Z,84.17
2023-02-11T13:23:00.274Z,84.93
2023-02-11T13:25:44.728Z,85.02
2023-02-11T13:28:42.480Z,84.42
2023-02-11T13:31:16.738Z,84.29
2023-02-11T13:33:50.450Z,84.53
2023-02-11T13:36:28.615Z,84.00
2023-02-11T13:39:39.865Z,84.46
2023-02-11T13:42:18.222Z,84.36
2023-02-11T13:44:52.257Z,83.76
2023-02-11T13:47:52.363Z,83.66
2023-02-11T13:50:27.357Z,83.91
2023-02-11T13:53:06.177Z,84.59
2023-02-11T13:55:43.137Z,84.07
2023-02-11T14:07:46.232Z,83.67
2023-02-11T14:10:52.405Z,83.13
2023-02-11T14:13:26.820Z,84.04
2023-02-11T14:16:08.945Z,83.97
2023-02-11T14:22:03.458Z,83.50
2023-02-11T14:27:57.023Z,83.80
2023-02-11T14:30:47.131Z,82.98
2023-02-11T14:36:44.474Z,83.50
2023-02-11T14:39:26.770Z,84.04
2023-02-11T14:42:03.572Z,83.61
2023-02-11T14:44:37.940Z,83.47
2023-02-11T14:47:18.488Z,84.67
2023-02-11T14:49:51.590Z,84.24
2023-02-11T14:55:57.475Z,83.64
2023-02-11T14:58:32.045Z,83.59
2023-02-11T15:01:23.494Z,84.46
2023-02-11T15:03:58.178Z,83.74
2023-02-11T15:06:33.375Z,83.80
2023-02-11T15:09:14.541Z,83.33
2023-02-11T15:11:49.881Z,83.76
2023-02-11T15:14:26.648Z,83.74
2023-02-11T15:17:05.346Z,84.62
2023-02-11T15:19:42.009Z,84.22
2023-02-11T15:22:20.235Z,83.95
2023-02-11T15:25:00.760Z,84.62
2023-02-11T15:27:40.357Z,84.65
2023-02-11T15:30:26.690Z,84.62
2023-02-11T15:33:05.716Z,84.72
2023-02-11T15:35:42.268Z,84.42
2023-02-11T15:38:15.373Z,85.45
2023-02-11T15:40:56.717Z,84.94
2023-02-11T15:43:42.974Z,85.81
2023-02-11T15:46:19.709Z,85.70
2023-02-11T15:48:56.586Z,85.40
2023-02-11T15:51:32.873Z,85.36
2023-02-11T15:54:08.815Z,85.25
2023-02-11T15:56:44.713Z,85.58
2023-02-11T15:59:21.752Z,85.18
2023-02-11T16:01:55.956Z,85.87
2023-02-11T16:04:30.216Z,86.16
2023-02-11T16:07:03.146Z,86.18
2023-02-11T16:09:37.632Z,86.93
2023-02-11T16:12:27.003Z,87.27
2023-02-11T16:15:03.768Z,86.95
2023-02-11T16:17:37.177Z,87.08
2023-02-11T16:20:20.437Z,87.18
2023-02-11T16:26:01.316Z,87.33
2023-02-11T16:28:34.769Z,87.63
2023-02-11T16:31:09.554Z,87.72
2023-02-11T16:33:42.203Z,87.76
2023-02-11T16:36:29.382Z,87.83
2023-02-11T16:39:04.037Z,88.24
2023-02-11T16:41:36.812Z,88.14
2023-02-11T16:44:09.791Z,88.57
2023-02-11T16:46:42.846Z,88.37
2023-02-11T16:49:19.197Z,88.84
2023-02-11T16:51:57.335Z,88.18
2023-02-11T16:54:32.266Z,88.95
2023-02-11T16:57:10.202Z,89.09
2023-02-11T16:59:43.246Z,89.41
2023-02-11T17:02:21.191Z,88.59
2023-02-11T17:04:59.179Z,89.41
2023-02-11T17:07:32.511Z,89.20
2023-02-11T17:10:15.139Z,89.28
2023-02-11T17:12:48.892Z,89.53
2023-02-11T17:15:21.723Z,89.64
2023-02-11T17:17:54.487Z,89.93
2023-02-11T17:20:27.781Z,89.47
2023-02-11T17:23:00.665Z,89.82
2023-02-11T17:25:37.152Z,90.06
2023-02-11T17:28:12.020Z,90.32
2023-02-11T17:30:44.811Z,89.90
2023-02-11T17:33:18.808Z,89.97
2023-02-11T17:35:52.015Z,89.94
2023-02-11T17:38:24.986Z,90.15
2023-02-11T17:41:00.373Z,90.04
2023-02-11T17:43:33.294Z,89.55
2023-02-11T17:46:10.670Z,89.78
2023-02-11T17:48:43.513Z,90.14
2023-02-11T17:51:24.100Z,90.13
2023-02-11T17:53:58.579Z,90.05
2023-02-11T17:56:35.801Z,90.28
2023-02-11T17:59:11.106Z,90.01
2023-02-11T18:01:44.627Z,90.25
2023-02-11T18:04:19.978Z,90.23
2023-02-11T18:06:53.464Z,90.56
2023-02-11T18:09:27.054Z,91.17
2023-02-11T18:12:01.182Z,90.74
2023-02-11T18:14:34.915Z,91.53
2023-02-11T18:17:07.865Z,90.96
2023-02-11T18:19:40.720Z,91.02
2023-02-11T18:22:14.312Z,91.12
2023-02-11T18:24:51.815Z,91.18
2023-02-11T18:27:25.898Z,91.31
2023-02-11T18:29:59.394Z,91.25
2023-02-11T18:32:32.858Z,91.14
2023-02-11T18:35:08.731Z,91.18
2023-02-11T18:37:42.452Z,91.68
2023-02-11T18:40:15.366Z,91.54
2023-02-11T18:42:49.530Z,91.54
2023-02-11T18:45:23.783Z,91.42
2023-02-11T18:47:56.663Z,91.62
2023-02-11T18:50:29.467Z,91.59
2023-02-11T18:53:02.247Z,91.72
2023-02-11T18:55:35.155Z,92.01
2023-02-11T18:58:09.440Z,92.03
2023-02-11T19:00:46.379Z,92.31
2023-02-11T19:03:20.323Z,91.68
2023-02-11T19:05:54.509Z,91.79
2023-02-11T19:08:27.477Z,92.16
2023-02-11T19:11:00.272Z,92.24
2023-02-11T19:13:34.720Z,92.49
2023-02-11T19:16:11.377Z,92.30
2023-02-11T19:18:44.580Z,92.19
2023-02-11T19:21:17.436Z,92.29
2023-02-11T19:23:50.361Z,92.65
2023-02-11T19:26:24.794Z,92.97
2023-02-11T19:28:59.725Z,93.09
2023-02-11T19:31:33.230Z,92.90
2023-02-11T19:34:07.309Z,92.60
2023-02-11T19:36:40.133Z,92.78
2023-02-11T19:39:13.454Z,92.85
2023-02-11T19:41:46.332Z,92.98
2023-02-11T19:44:20.494Z,93.24
2023-02-11T19:46:54.642Z,93.18
2023-02-11T19:49:27.823Z,93.41
2023-02-11T19:52:02.354Z,93.00
2023-02-11T19:54:35.192Z,93.25
2023-02-11T19:57:07.930Z,92.95
2023-02-11T20:09:28.893Z,93.16
2023-02-11T20:12:01.691Z,93.50
2023-02-11T20:14:34.479Z,93.88
2023-02-11T20:17:07.279Z,93.94
2023-02-11T20:19:40.047Z,93.70
2023-02-11T20:25:39.854Z,93.65
2023-02-11T20:28:13.893Z,94.17
2023-02-11T20:30:46.729Z,94.20
2023-02-11T20:33:21.978Z,94.06
2023-02-11T20:35:56.280Z,94.12
2023-02-11T20:38:29.301Z,94.24
2023-02-11T21:00:09.561Z,95.33
2023-02-11T21:02:42.365Z,94.66
2023-02-11T21:05:15.454Z,95.42
2023-02-11T21:07:48.292Z,95.62
2023-02-11T21:10:21.520Z,95.37
2023-02-11T21:12:54.620Z,95.80
2023-02-11T21:15:29.073Z,95.61
2023-02-11T21:18:02.236Z,95.53
2023-02-11T21:20:35.297Z,95.85
2023-02-11T21:23:08.248Z,95.60
2023-02-11T21:25:41.370Z,95.80
2023-02-11T21:28:14.811Z,95.88
2023-02-11T21:30:51.585Z,95.90
2023-02-11T21:33:25.916Z,95.44
2023-02-11T21:35:59.862Z,95.98
2023-02-11T21:38:34.693Z,96.15
2023-02-11T21:41:08.285Z,95.77
2023-02-11T21:43:41.109Z,96.00
2023-02-11T21:46:16.617Z,96.27
2023-02-11T21:48:50.906Z,96.00
2023-02-11T21:51:25.955Z,95.93
2023-02-11T21:54:01.005Z,96.42
2023-02-11T21:56:35.270Z,96.30
2023-02-11T21:59:08.089Z,95.54
2023-02-11T22:01:42.317Z,95.73
2023-02-11T22:04:15.420Z,96.30
2023-02-11T22:06:49.203Z,96.13
2023-02-11T22:09:21.984Z,96.31
2023-02-11T22:11:54.824Z,96.28
2023-02-11T22:14:27.911Z,96.36
2023-02-11T22:17:04.319Z,96.27
2023-02-11T22:19:37.439Z,96.35
2023-02-11T22:22:10.540Z,96.62
2023-02-11T22:24:45.382Z,96.41
2023-02-11T22:27:20.266Z,96.81
2023-02-11T22:29:53.334Z,96.68
2023-02-11T22:32:27.526Z,96.61
2023-02-11T22:35:01.464Z,96.63
2023-02-11T22:37:34.301Z,96.46
2023-02-11T22:40:08.449Z,96.86
2023-02-11T22:42:41.369Z,96.23
2023-02-11T22:45:14.286Z,96.39
2023-02-11T22:47:48.443Z,96.63
2023-02-11T22:50:21.228Z,96.40
2023-02-11T22:52:54.054Z,95.81
2023-02-11T22:55:27.407Z,96.41
2023-02-11T22:58:00.191Z,95.69
2023-02-11T23:00:37.756Z,96.32
2023-02-11T23:03:14.065Z,96.19
2023-02-11T23:05:46.847Z,96.49
2023-02-11T23:08:19.707Z,96.46
2023-02-11T23:10:52.551Z,96.55
2023-02-11T23:13:25.500Z,96.38
2023-02-11T23:15:58.377Z,96.54
2023-02-11T23:18:33.111Z,96.25
2023-02-11T23:21:10.145Z,95.56
2023-02-11T23:23:46.096Z,95.63
2023-02-11T23:26:19.386Z,95.48
2023-02-11T23:28:52.365Z,95.33
2023-02-11T23:31:29.025Z,95.81
2023-02-11T23:34:03.421Z,95.80
2023-02-11T23:36:37.198Z,95.89
2023-02-11T23:39:10.052Z,96.08
2023-02-11T23:41:42.857Z,95.95
2023-02-11T23:44:15.710Z,95.88
2023-02-11T23:46:48.515Z,95.76
2023-02-11T23:49:22.674Z,96.02
2023-02-11T23:51:57.594Z,95.79
2023-02-11T23:54:30.393Z,96.00
2023-02-11T23:57:03.209Z,96.16
2023-02-11T23:59:36.011Z,95.75
